ROA2079 TJSJ-SVMI
Flight info
| Callsign | ROA2079 |
|---|---|
| Flight time | 1h 28m |
| Altitude | 36000 |
| Route | GANBO1 ARMUR UN779 SILVA DCT LRS/N0462F370 DCT TOROP NETSI1 |
| Aircraft | B738/M-SDE2E3FGHIRWXY/LB1 |
Departure
| Time | 2026-05-07 02:40 |
|---|---|
| Airport | Luis Munoz Marin International Airport (TJSJ) |
Arrival
| Time | 2026-05-07 04:08 |
|---|---|
| Airport | Maiquetía Simón Bolívar International Airport (SVMI) |
| Time | Latitude | Longitude | Altitude | Speed | Heading |
|---|---|---|---|---|---|
| 2026-05-07 01:50 | 18.43907 | -66.00228 | -26 ft | 0 kts | 159° |
| 2026-05-07 02:26 | 18.43915 | -66.00232 | -26 ft | 4 kts | 160° |
| 2026-05-07 02:27 | 18.43935 | -66.00238 | -26 ft | 2 kts | 173° |
| 2026-05-07 02:27 | 18.43946 | -66.00238 | -26 ft | 2 kts | 199° |
| 2026-05-07 02:27 | 18.43956 | -66.00233 | -26 ft | 2 kts | 232° |
| 2026-05-07 02:27 | 18.43966 | -66.00215 | -26 ft | 4 kts | 246° |
| 2026-05-07 02:28 | 18.43975 | -66.00191 | -26 ft | 2 kts | 242° |
| 2026-05-07 02:28 | 18.43984 | -66.00172 | -28 ft | 4 kts | 248° |
| 2026-05-07 02:28 | 18.43990 | -66.00155 | -26 ft | 3 kts | 261° |
| 2026-05-07 02:28 | 18.43991 | -66.00141 | -26 ft | 2 kts | 281° |
| 2026-05-07 02:29 | 18.43988 | -66.00130 | -26 ft | 2 kts | 300° |
| 2026-05-07 02:29 | 18.43982 | -66.00120 | -26 ft | 2 kts | 316° |
| 2026-05-07 02:29 | 18.43974 | -66.00112 | -26 ft | 2 kts | 325° |
| 2026-05-07 02:29 | 18.43964 | -66.00105 | -29 ft | 2 kts | 332° |
| 2026-05-07 02:30 | 18.43954 | -66.00100 | -26 ft | 2 kts | 336° |
| 2026-05-07 02:31 | 18.43956 | -66.00101 | -26 ft | 3 kts | 337° |
| 2026-05-07 02:31 | 18.43991 | -66.00117 | -26 ft | 7 kts | 336° |
| 2026-05-07 02:31 | 18.44039 | -66.00139 | -41 ft | 8 kts | 337° |
| 2026-05-07 02:32 | 18.44094 | -66.00163 | -26 ft | 9 kts | 337° |
| 2026-05-07 02:32 | 18.44155 | -66.00193 | -47 ft | 10 kts | 330° |
| 2026-05-07 02:32 | 18.44220 | -66.00233 | -30 ft | 13 kts | 326° |
| 2026-05-07 02:32 | 18.44228 | -66.00315 | -50 ft | 12 kts | 249° |
| 2026-05-07 02:33 | 18.44196 | -66.00392 | -46 ft | 11 kts | 246° |
| 2026-05-07 02:33 | 18.44168 | -66.00461 | -43 ft | 10 kts | 246° |
| 2026-05-07 02:33 | 18.44142 | -66.00524 | -44 ft | 9 kts | 247° |
| 2026-05-07 02:33 | 18.44120 | -66.00580 | -41 ft | 8 kts | 247° |
| 2026-05-07 02:34 | 18.44098 | -66.00631 | -41 ft | 8 kts | 245° |
| 2026-05-07 02:34 | 18.44076 | -66.00682 | -36 ft | 8 kts | 248° |
| 2026-05-07 02:34 | 18.44056 | -66.00737 | -45 ft | 9 kts | 249° |
| 2026-05-07 02:34 | 18.44033 | -66.00798 | -31 ft | 10 kts | 248° |
| 2026-05-07 02:35 | 18.44005 | -66.00867 | -42 ft | 11 kts | 246° |
| 2026-05-07 02:35 | 18.43974 | -66.00941 | -28 ft | 11 kts | 246° |
| 2026-05-07 02:35 | 18.43941 | -66.01021 | -47 ft | 14 kts | 247° |
| 2026-05-07 02:35 | 18.43894 | -66.01136 | -38 ft | 19 kts | 247° |
| 2026-05-07 02:36 | 18.43842 | -66.01265 | -53 ft | 19 kts | 248° |
| 2026-05-07 02:36 | 18.43793 | -66.01390 | -56 ft | 18 kts | 247° |
| 2026-05-07 02:36 | 18.43757 | -66.01503 | -39 ft | 8 kts | 283° |
| 2026-05-07 02:36 | 18.43759 | -66.01509 | -39 ft | 2 kts | 286° |
| 2026-05-07 02:37 | 18.43770 | -66.01528 | -40 ft | 5 kts | 307° |
| 2026-05-07 02:37 | 18.43797 | -66.01558 | -40 ft | 7 kts | 316° |
| 2026-05-07 02:37 | 18.43843 | -66.01568 | -40 ft | 8 kts | 28° |
| 2026-05-07 02:37 | 18.43871 | -66.01516 | -40 ft | 9 kts | 73° |
| 2026-05-07 02:38 | 18.43892 | -66.01456 | -53 ft | 9 kts | 66° |
| 2026-05-07 02:38 | 18.43897 | -66.01443 | -40 ft | 0 kts | 66° |
| 2026-05-07 02:38 | 18.43897 | -66.01442 | -40 ft | 0 kts | 66° |
| 2026-05-07 02:39 | 18.43899 | -66.01438 | -40 ft | 2 kts | 66° |
| 2026-05-07 02:39 | 18.43905 | -66.01423 | -40 ft | 3 kts | 66° |
| 2026-05-07 02:39 | 18.43930 | -66.01360 | -50 ft | 27 kts | 68° |
| 2026-05-07 02:39 | 18.44095 | -66.00948 | -51 ft | 94 kts | 67° |
| 2026-05-07 02:40 | 18.44423 | -66.00128 | -41 ft | 147 kts | 67° |
| 2026-05-07 02:40 | 18.44875 | -65.99015 | 158 ft | 175 kts | 68° |
| 2026-05-07 02:40 | 18.45289 | -65.97785 | 772 ft | 180 kts | 83° |
| 2026-05-07 02:40 | 18.45059 | -65.96490 | 1329 ft | 188 kts | 125° |
| 2026-05-07 02:41 | 18.43963 | -65.95710 | 1739 ft | 204 kts | 170° |
| 2026-05-07 02:41 | 18.42531 | -65.95983 | 2238 ft | 223 kts | 207° |
| 2026-05-07 02:41 | 18.41349 | -65.97108 | 2832 ft | 239 kts | 230° |
| 2026-05-07 02:41 | 18.40358 | -65.98568 | 3329 ft | 256 kts | 234° |
| 2026-05-07 02:42 | 18.39340 | -66.00191 | 3817 ft | 272 kts | 235° |
| 2026-05-07 02:42 | 18.38282 | -66.01876 | 4481 ft | 278 kts | 235° |
| 2026-05-07 02:42 | 18.37212 | -66.03573 | 5353 ft | 275 kts | 235° |
| 2026-05-07 02:42 | 18.36157 | -66.05241 | 6291 ft | 274 kts | 235° |
| 2026-05-07 02:43 | 18.35109 | -66.06890 | 7111 ft | 275 kts | 234° |
| 2026-05-07 02:43 | 18.34031 | -66.08577 | 7897 ft | 279 kts | 234° |
| 2026-05-07 02:43 | 18.32938 | -66.10283 | 8655 ft | 282 kts | 234° |
| 2026-05-07 02:43 | 18.31834 | -66.12002 | 9395 ft | 285 kts | 235° |
| 2026-05-07 02:44 | 18.30711 | -66.13746 | 10114 ft | 288 kts | 235° |
| 2026-05-07 02:44 | 18.29579 | -66.15501 | 10853 ft | 291 kts | 236° |
| 2026-05-07 02:44 | 18.28452 | -66.17244 | 11551 ft | 293 kts | 236° |
| 2026-05-07 02:44 | 18.27298 | -66.19029 | 12226 ft | 296 kts | 236° |
| 2026-05-07 02:45 | 18.26022 | -66.20758 | 12887 ft | 300 kts | 229° |
| 2026-05-07 02:45 | 18.24621 | -66.22404 | 13560 ft | 303 kts | 228° |
| 2026-05-07 02:45 | 18.23192 | -66.24053 | 14265 ft | 307 kts | 229° |
| 2026-05-07 02:45 | 18.21766 | -66.25701 | 14974 ft | 308 kts | 229° |
| 2026-05-07 02:46 | 18.20319 | -66.27377 | 15693 ft | 311 kts | 230° |
| 2026-05-07 02:46 | 18.18860 | -66.29076 | 16389 ft | 314 kts | 230° |
| 2026-05-07 02:46 | 18.17390 | -66.30792 | 17056 ft | 317 kts | 230° |
| 2026-05-07 02:46 | 18.15903 | -66.32527 | 17715 ft | 320 kts | 230° |
| 2026-05-07 02:47 | 18.14402 | -66.34277 | 18368 ft | 323 kts | 230° |
| 2026-05-07 02:47 | 18.13401 | -66.35443 | 18799 ft | 325 kts | 230° |
| 2026-05-07 02:47 | 18.11378 | -66.37801 | 19644 ft | 330 kts | 230° |
| 2026-05-07 02:47 | 18.09832 | -66.39601 | 20269 ft | 333 kts | 230° |
| 2026-05-07 02:48 | 18.08796 | -66.40807 | 20677 ft | 335 kts | 230° |
| 2026-05-07 02:48 | 18.07166 | -66.42565 | 21270 ft | 340 kts | 221° |
| 2026-05-07 02:48 | 18.05156 | -66.43905 | 21876 ft | 344 kts | 205° |
| 2026-05-07 02:48 | 18.02834 | -66.44560 | 22468 ft | 348 kts | 188° |
| 2026-05-07 02:49 | 18.00405 | -66.44818 | 23001 ft | 353 kts | 185° |
| 2026-05-07 02:49 | 17.97940 | -66.45014 | 23549 ft | 356 kts | 185° |
| 2026-05-07 02:49 | 17.95460 | -66.45201 | 24088 ft | 359 kts | 185° |
| 2026-05-07 02:49 | 17.92990 | -66.45389 | 24602 ft | 361 kts | 185° |
| 2026-05-07 02:50 | 17.90465 | -66.45584 | 25118 ft | 364 kts | 185° |
| 2026-05-07 02:50 | 17.87915 | -66.45779 | 25622 ft | 367 kts | 185° |
| 2026-05-07 02:50 | 17.85350 | -66.45977 | 26141 ft | 370 kts | 185° |
| 2026-05-07 02:50 | 17.82803 | -66.46172 | 26632 ft | 372 kts | 186° |
| 2026-05-07 02:51 | 17.80205 | -66.46371 | 27106 ft | 375 kts | 186° |
| 2026-05-07 02:51 | 17.77589 | -66.46572 | 27585 ft | 378 kts | 186° |
| 2026-05-07 02:51 | 17.74944 | -66.46775 | 28042 ft | 380 kts | 186° |
| 2026-05-07 02:51 | 17.72328 | -66.46976 | 28475 ft | 382 kts | 186° |
| 2026-05-07 02:52 | 17.69658 | -66.47180 | 28907 ft | 385 kts | 186° |
| 2026-05-07 02:52 | 17.66969 | -66.47386 | 29324 ft | 387 kts | 186° |
| 2026-05-07 02:52 | 17.64262 | -66.47594 | 29736 ft | 390 kts | 187° |
| 2026-05-07 02:52 | 17.61580 | -66.47799 | 30134 ft | 392 kts | 187° |
| 2026-05-07 02:53 | 17.58837 | -66.48009 | 30513 ft | 394 kts | 187° |
| 2026-05-07 02:53 | 17.56087 | -66.48219 | 30899 ft | 396 kts | 187° |
| 2026-05-07 02:53 | 17.53358 | -66.48428 | 31263 ft | 398 kts | 187° |
| 2026-05-07 02:53 | 17.50583 | -66.48640 | 31626 ft | 400 kts | 187° |
| 2026-05-07 02:54 | 17.47798 | -66.48853 | 31981 ft | 401 kts | 187° |
| 2026-05-07 02:54 | 17.44996 | -66.49067 | 32323 ft | 403 kts | 187° |
| 2026-05-07 02:54 | 17.42216 | -66.49280 | 32652 ft | 405 kts | 187° |
| 2026-05-07 02:54 | 17.39385 | -66.49496 | 32978 ft | 406 kts | 187° |
| 2026-05-07 02:55 | 17.36559 | -66.49712 | 33297 ft | 407 kts | 187° |
| 2026-05-07 02:55 | 17.33739 | -66.49927 | 33606 ft | 409 kts | 188° |
| 2026-05-07 02:55 | 17.30881 | -66.50145 | 33905 ft | 410 kts | 187° |
| 2026-05-07 02:55 | 17.28020 | -66.50364 | 34058 ft | 415 kts | 188° |
| 2026-05-07 02:56 | 17.22212 | -66.50807 | 34100 ft | 426 kts | 187° |
| 2026-05-07 02:56 | 17.16238 | -66.51262 | 34118 ft | 432 kts | 187° |
| 2026-05-07 02:57 | 17.10195 | -66.51722 | 34125 ft | 436 kts | 187° |
| 2026-05-07 02:57 | 17.04151 | -66.52182 | 34126 ft | 439 kts | 187° |
| 2026-05-07 02:58 | 16.98003 | -66.52650 | 34127 ft | 442 kts | 187° |
| 2026-05-07 02:58 | 16.91875 | -66.53115 | 34126 ft | 445 kts | 187° |
| 2026-05-07 02:59 | 16.85672 | -66.53587 | 34127 ft | 447 kts | 187° |
| 2026-05-07 02:59 | 16.79455 | -66.54058 | 34130 ft | 449 kts | 187° |
| 2026-05-07 03:00 | 16.73223 | -66.54531 | 34128 ft | 451 kts | 187° |
| 2026-05-07 03:00 | 16.66945 | -66.55007 | 34126 ft | 453 kts | 187° |
| 2026-05-07 03:01 | 16.60641 | -66.55485 | 34127 ft | 453 kts | 187° |
| 2026-05-07 03:01 | 16.54361 | -66.55960 | 34126 ft | 452 kts | 187° |
| 2026-05-07 03:02 | 16.48124 | -66.56432 | 34126 ft | 451 kts | 187° |
| 2026-05-07 03:02 | 16.41866 | -66.56906 | 34126 ft | 450 kts | 187° |
| 2026-05-07 03:03 | 16.35640 | -66.57376 | 34119 ft | 450 kts | 187° |
| 2026-05-07 03:03 | 16.29390 | -66.57848 | 34118 ft | 450 kts | 187° |
| 2026-05-07 03:04 | 16.23138 | -66.58321 | 34117 ft | 449 kts | 187° |
| 2026-05-07 03:04 | 16.16929 | -66.58789 | 34117 ft | 449 kts | 187° |
| 2026-05-07 03:05 | 16.10678 | -66.59261 | 34117 ft | 449 kts | 187° |
| 2026-05-07 03:05 | 16.04481 | -66.59729 | 34110 ft | 448 kts | 187° |
| 2026-05-07 03:06 | 15.98245 | -66.60198 | 34111 ft | 448 kts | 187° |
| 2026-05-07 03:06 | 15.92056 | -66.60665 | 34109 ft | 447 kts | 187° |
| 2026-05-07 03:07 | 15.85840 | -66.61133 | 34109 ft | 447 kts | 187° |
| 2026-05-07 03:07 | 15.79624 | -66.61600 | 34108 ft | 446 kts | 187° |
| 2026-05-07 03:08 | 15.73449 | -66.62064 | 34108 ft | 447 kts | 187° |
| 2026-05-07 03:08 | 15.67229 | -66.62532 | 34108 ft | 447 kts | 187° |
| 2026-05-07 03:09 | 15.61035 | -66.62997 | 34108 ft | 447 kts | 187° |
| 2026-05-07 03:09 | 15.54810 | -66.63464 | 34101 ft | 447 kts | 187° |
| 2026-05-07 03:10 | 15.48617 | -66.63715 | 34100 ft | 449 kts | 185° |
| 2026-05-07 03:10 | 15.42368 | -66.63906 | 34094 ft | 449 kts | 185° |
| 2026-05-07 03:11 | 15.36112 | -66.64112 | 34092 ft | 449 kts | 185° |
| 2026-05-07 03:11 | 15.29857 | -66.64322 | 34090 ft | 449 kts | 185° |
| 2026-05-07 03:12 | 15.23638 | -66.64531 | 34083 ft | 449 kts | 186° |
| 2026-05-07 03:12 | 15.17381 | -66.64740 | 34085 ft | 450 kts | 186° |
| 2026-05-07 03:13 | 15.11112 | -66.64950 | 34088 ft | 451 kts | 186° |
| 2026-05-07 03:13 | 15.04830 | -66.65160 | 34085 ft | 451 kts | 186° |
| 2026-05-07 03:14 | 14.98590 | -66.65369 | 34080 ft | 450 kts | 185° |
| 2026-05-07 03:15 | 14.89176 | -66.65684 | 34081 ft | 450 kts | 185° |
| 2026-05-07 03:15 | 14.82946 | -66.65892 | 34078 ft | 451 kts | 185° |
| 2026-05-07 03:16 | 14.76675 | -66.66101 | 34081 ft | 450 kts | 186° |
| 2026-05-07 03:16 | 14.70398 | -66.66311 | 34076 ft | 450 kts | 186° |
| 2026-05-07 03:17 | 14.64160 | -66.66519 | 34069 ft | 450 kts | 185° |
| 2026-05-07 03:17 | 14.57885 | -66.66728 | 34071 ft | 450 kts | 186° |
| 2026-05-07 03:18 | 14.51639 | -66.66936 | 34068 ft | 449 kts | 186° |
| 2026-05-07 03:18 | 14.45374 | -66.67143 | 34067 ft | 449 kts | 185° |
| 2026-05-07 03:19 | 14.39150 | -66.67154 | 34072 ft | 450 kts | 184° |
| 2026-05-07 03:19 | 14.32869 | -66.67139 | 34066 ft | 450 kts | 184° |
| 2026-05-07 03:20 | 14.26630 | -66.67138 | 34062 ft | 450 kts | 184° |
| 2026-05-07 03:20 | 14.20369 | -66.67138 | 34063 ft | 449 kts | 184° |
| 2026-05-07 03:21 | 14.14113 | -66.67137 | 34062 ft | 449 kts | 184° |
| 2026-05-07 03:21 | 14.07885 | -66.67137 | 34062 ft | 449 kts | 184° |
| 2026-05-07 03:22 | 14.01634 | -66.67137 | 34062 ft | 449 kts | 184° |
| 2026-05-07 03:22 | 13.95369 | -66.67136 | 34055 ft | 449 kts | 184° |
| 2026-05-07 03:23 | 13.89111 | -66.67136 | 34054 ft | 449 kts | 184° |
| 2026-05-07 03:23 | 13.82896 | -66.67135 | 34054 ft | 449 kts | 184° |
| 2026-05-07 03:24 | 13.76630 | -66.67135 | 34054 ft | 449 kts | 184° |
| 2026-05-07 03:24 | 13.70370 | -66.67135 | 34055 ft | 449 kts | 184° |
| 2026-05-07 03:25 | 13.64142 | -66.67134 | 34054 ft | 449 kts | 184° |
| 2026-05-07 03:25 | 13.57892 | -66.67134 | 34051 ft | 449 kts | 184° |
| 2026-05-07 03:26 | 13.51661 | -66.67134 | 34048 ft | 449 kts | 184° |
| 2026-05-07 03:26 | 13.45386 | -66.67133 | 34046 ft | 450 kts | 184° |
| 2026-05-07 03:27 | 13.39153 | -66.67133 | 34045 ft | 450 kts | 184° |
| 2026-05-07 03:27 | 13.32865 | -66.67133 | 34047 ft | 450 kts | 184° |
| 2026-05-07 03:28 | 13.26639 | -66.67132 | 34046 ft | 450 kts | 184° |
| 2026-05-07 03:28 | 13.20360 | -66.67132 | 34046 ft | 450 kts | 184° |
| 2026-05-07 03:29 | 13.14081 | -66.67132 | 34046 ft | 450 kts | 183° |
| 2026-05-07 03:29 | 13.07844 | -66.67131 | 34045 ft | 450 kts | 184° |
| 2026-05-07 03:30 | 13.01568 | -66.67131 | 34045 ft | 451 kts | 184° |
| 2026-05-07 03:30 | 12.95266 | -66.67130 | 34028 ft | 451 kts | 184° |
| 2026-05-07 03:31 | 12.90036 | -66.67130 | 34036 ft | 451 kts | 184° |
| 2026-05-07 03:31 | 12.82722 | -66.67130 | 34031 ft | 452 kts | 184° |
| 2026-05-07 03:32 | 12.76428 | -66.67130 | 34035 ft | 452 kts | 183° |
| 2026-05-07 03:32 | 12.71188 | -66.67129 | 34032 ft | 452 kts | 184° |
| 2026-05-07 03:33 | 12.63868 | -66.67129 | 34035 ft | 452 kts | 183° |
| 2026-05-07 03:33 | 12.58623 | -66.67128 | 34033 ft | 452 kts | 183° |
| 2026-05-07 03:34 | 12.52305 | -66.67128 | 34033 ft | 453 kts | 183° |
| 2026-05-07 03:34 | 12.45979 | -66.67128 | 34029 ft | 453 kts | 183° |
| 2026-05-07 03:35 | 12.39702 | -66.67127 | 34024 ft | 453 kts | 183° |
| 2026-05-07 03:35 | 12.33383 | -66.67127 | 34021 ft | 453 kts | 183° |
| 2026-05-07 03:36 | 12.27120 | -66.67127 | 34025 ft | 453 kts | 183° |
| 2026-05-07 03:36 | 12.20797 | -66.67126 | 34024 ft | 453 kts | 183° |
| 2026-05-07 03:37 | 12.14480 | -66.67126 | 34026 ft | 453 kts | 183° |
| 2026-05-07 03:37 | 12.08201 | -66.67126 | 34010 ft | 453 kts | 183° |
| 2026-05-07 03:38 | 12.01885 | -66.67125 | 34008 ft | 453 kts | 183° |
| 2026-05-07 03:38 | 11.95646 | -66.66004 | 34019 ft | 463 kts | 161° |
| 2026-05-07 03:38 | 11.92777 | -66.64474 | 34017 ft | 469 kts | 149° |
| 2026-05-07 03:39 | 11.90225 | -66.62440 | 34019 ft | 473 kts | 141° |
| 2026-05-07 03:39 | 11.89409 | -66.61670 | 34013 ft | 474 kts | 139° |
| 2026-05-07 03:40 | 11.80587 | -66.52685 | 33999 ft | 477 kts | 137° |
| 2026-05-07 03:40 | 11.75947 | -66.47898 | 33998 ft | 476 kts | 137° |
| 2026-05-07 03:41 | 11.71315 | -66.43093 | 33997 ft | 475 kts | 137° |
| 2026-05-07 03:41 | 11.66681 | -66.38290 | 33998 ft | 475 kts | 137° |
| 2026-05-07 03:42 | 11.62039 | -66.33480 | 33998 ft | 475 kts | 137° |
| 2026-05-07 03:42 | 11.57425 | -66.28703 | 33999 ft | 474 kts | 137° |
| 2026-05-07 03:43 | 11.52745 | -66.23943 | 33997 ft | 472 kts | 143° |
| 2026-05-07 03:43 | 11.50075 | -66.22018 | 33747 ft | 470 kts | 154° |
| 2026-05-07 03:43 | 11.47087 | -66.20727 | 33061 ft | 466 kts | 168° |
| 2026-05-07 03:43 | 11.43900 | -66.20137 | 32352 ft | 462 kts | 178° |
| 2026-05-07 03:44 | 11.40737 | -66.20095 | 31718 ft | 459 kts | 186° |
| 2026-05-07 03:44 | 11.37573 | -66.20450 | 31147 ft | 454 kts | 194° |
| 2026-05-07 03:44 | 11.34541 | -66.21278 | 30594 ft | 449 kts | 200° |
| 2026-05-07 03:44 | 11.31572 | -66.22241 | 30038 ft | 447 kts | 200° |
| 2026-05-07 03:45 | 11.28608 | -66.23221 | 29492 ft | 444 kts | 200° |
| 2026-05-07 03:45 | 11.25684 | -66.24192 | 28958 ft | 440 kts | 200° |
| 2026-05-07 03:45 | 11.22767 | -66.25165 | 28436 ft | 443 kts | 200° |
| 2026-05-07 03:45 | 11.19841 | -66.26145 | 27907 ft | 449 kts | 200° |
| 2026-05-07 03:46 | 11.16843 | -66.27156 | 27356 ft | 454 kts | 200° |
| 2026-05-07 03:46 | 11.13842 | -66.28170 | 26816 ft | 458 kts | 200° |
| 2026-05-07 03:46 | 11.10780 | -66.29203 | 26262 ft | 461 kts | 200° |
| 2026-05-07 03:46 | 11.07758 | -66.30222 | 25714 ft | 462 kts | 199° |
| 2026-05-07 03:47 | 11.04697 | -66.31254 | 25161 ft | 462 kts | 199° |
| 2026-05-07 03:47 | 11.01650 | -66.32282 | 24608 ft | 460 kts | 199° |
| 2026-05-07 03:47 | 10.98615 | -66.33305 | 24059 ft | 458 kts | 199° |
| 2026-05-07 03:47 | 10.95593 | -66.34324 | 23509 ft | 456 kts | 199° |
| 2026-05-07 03:48 | 10.92583 | -66.35338 | 22964 ft | 454 kts | 199° |
| 2026-05-07 03:48 | 10.89603 | -66.36378 | 22307 ft | 452 kts | 202° |
| 2026-05-07 03:48 | 10.86840 | -66.37875 | 21608 ft | 450 kts | 215° |
| 2026-05-07 03:48 | 10.84492 | -66.39961 | 21001 ft | 447 kts | 228° |
| 2026-05-07 03:49 | 10.82660 | -66.42433 | 20502 ft | 441 kts | 238° |
| 2026-05-07 03:49 | 10.81213 | -66.45170 | 19980 ft | 436 kts | 246° |
| 2026-05-07 03:49 | 10.80193 | -66.48049 | 19495 ft | 430 kts | 257° |
| 2026-05-07 03:49 | 10.79583 | -66.51019 | 18939 ft | 427 kts | 260° |
| 2026-05-07 03:50 | 10.79052 | -66.53952 | 18416 ft | 425 kts | 260° |
| 2026-05-07 03:50 | 10.78518 | -66.56939 | 17896 ft | 422 kts | 261° |
| 2026-05-07 03:50 | 10.78003 | -66.59839 | 17310 ft | 420 kts | 260° |
| 2026-05-07 03:50 | 10.77496 | -66.62710 | 16779 ft | 401 kts | 260° |
| 2026-05-07 03:51 | 10.77016 | -66.65442 | 16301 ft | 381 kts | 261° |
| 2026-05-07 03:51 | 10.76566 | -66.68037 | 15852 ft | 363 kts | 260° |
| 2026-05-07 03:51 | 10.76143 | -66.70484 | 15432 ft | 346 kts | 260° |
| 2026-05-07 03:51 | 10.75734 | -66.72841 | 15027 ft | 332 kts | 260° |
| 2026-05-07 03:52 | 10.75339 | -66.75121 | 14672 ft | 322 kts | 260° |
| 2026-05-07 03:52 | 10.74956 | -66.77328 | 14368 ft | 314 kts | 260° |
| 2026-05-07 03:52 | 10.74578 | -66.79509 | 14023 ft | 311 kts | 260° |
| 2026-05-07 03:52 | 10.74201 | -66.81684 | 13665 ft | 312 kts | 259° |
| 2026-05-07 03:53 | 10.73827 | -66.83835 | 13290 ft | 312 kts | 259° |
| 2026-05-07 03:53 | 10.73448 | -66.86010 | 12927 ft | 312 kts | 259° |
| 2026-05-07 03:53 | 10.73072 | -66.88177 | 12556 ft | 311 kts | 259° |
| 2026-05-07 03:53 | 10.72752 | -66.90347 | 12211 ft | 309 kts | 265° |
| 2026-05-07 03:54 | 10.72690 | -66.92541 | 11833 ft | 311 kts | 269° |
| 2026-05-07 03:54 | 10.72694 | -66.94734 | 11445 ft | 309 kts | 270° |
| 2026-05-07 03:54 | 10.72705 | -66.96923 | 11069 ft | 307 kts | 269° |
| 2026-05-07 03:54 | 10.72714 | -66.99089 | 10701 ft | 304 kts | 269° |
| 2026-05-07 03:55 | 10.72720 | -67.01212 | 10342 ft | 302 kts | 269° |
| 2026-05-07 03:55 | 10.72722 | -67.03339 | 9982 ft | 299 kts | 269° |
| 2026-05-07 03:55 | 10.72720 | -67.05455 | 9625 ft | 296 kts | 268° |
| 2026-05-07 03:55 | 10.72715 | -67.07527 | 9274 ft | 295 kts | 268° |
| 2026-05-07 03:56 | 10.72711 | -67.09608 | 8925 ft | 293 kts | 268° |
| 2026-05-07 03:56 | 10.72707 | -67.11672 | 8571 ft | 290 kts | 268° |
| 2026-05-07 03:56 | 10.72703 | -67.13722 | 8236 ft | 288 kts | 268° |
| 2026-05-07 03:56 | 10.72698 | -67.15757 | 7893 ft | 287 kts | 268° |
| 2026-05-07 03:57 | 10.72694 | -67.17781 | 7552 ft | 285 kts | 268° |
| 2026-05-07 03:57 | 10.72688 | -67.19764 | 7217 ft | 283 kts | 268° |
| 2026-05-07 03:57 | 10.72687 | -67.21778 | 6880 ft | 287 kts | 269° |
| 2026-05-07 03:57 | 10.72700 | -67.23823 | 6537 ft | 290 kts | 269° |
| 2026-05-07 03:58 | 10.72715 | -67.25873 | 6187 ft | 288 kts | 269° |
| 2026-05-07 03:58 | 10.72727 | -67.27904 | 5842 ft | 286 kts | 269° |
| 2026-05-07 03:58 | 10.72738 | -67.29898 | 5504 ft | 283 kts | 269° |
| 2026-05-07 03:58 | 10.72749 | -67.31898 | 5165 ft | 281 kts | 269° |
| 2026-05-07 03:59 | 10.72759 | -67.33880 | 4831 ft | 280 kts | 269° |
| 2026-05-07 03:59 | 10.72770 | -67.35858 | 4497 ft | 278 kts | 269° |
| 2026-05-07 03:59 | 10.72781 | -67.37828 | 4163 ft | 277 kts | 269° |
| 2026-05-07 03:59 | 10.72643 | -67.39721 | 4056 ft | 267 kts | 252° |
| 2026-05-07 04:00 | 10.71766 | -67.41314 | 4046 ft | 256 kts | 223° |
| 2026-05-07 04:00 | 10.70292 | -67.42230 | 4035 ft | 247 kts | 192° |
| 2026-05-07 04:00 | 10.68612 | -67.42254 | 4031 ft | 242 kts | 161° |
| 2026-05-07 04:00 | 10.67184 | -67.41399 | 4032 ft | 240 kts | 131° |
| 2026-05-07 04:01 | 10.66412 | -67.39909 | 4032 ft | 242 kts | 100° |
| 2026-05-07 04:01 | 10.66366 | -67.38772 | 4048 ft | 245 kts | 85° |
| 2026-05-07 04:01 | 10.66678 | -67.36456 | 4019 ft | 250 kts | 82° |
| 2026-05-07 04:01 | 10.66930 | -67.34706 | 4010 ft | 250 kts | 85° |
| 2026-05-07 04:02 | 10.66996 | -67.33541 | 4024 ft | 249 kts | 90° |
| 2026-05-07 04:02 | 10.66864 | -67.31786 | 4036 ft | 249 kts | 100° |
| 2026-05-07 04:02 | 10.66329 | -67.30118 | 4063 ft | 249 kts | 116° |
| 2026-05-07 04:02 | 10.65436 | -67.28604 | 4046 ft | 251 kts | 123° |
| 2026-05-07 04:03 | 10.64443 | -67.27140 | 4017 ft | 251 kts | 124° |
| 2026-05-07 04:03 | 10.63438 | -67.25694 | 4005 ft | 250 kts | 124° |
| 2026-05-07 04:03 | 10.62429 | -67.24247 | 3990 ft | 251 kts | 124° |
| 2026-05-07 04:03 | 10.61418 | -67.22801 | 3993 ft | 250 kts | 124° |
| 2026-05-07 04:04 | 10.60483 | -67.21335 | 3993 ft | 250 kts | 115° |
| 2026-05-07 04:04 | 10.59937 | -67.19663 | 3803 ft | 252 kts | 101° |
| 2026-05-07 04:04 | 10.59763 | -67.17953 | 3487 ft | 235 kts | 92° |
| 2026-05-07 04:04 | 10.59757 | -67.16350 | 3134 ft | 215 kts | 89° |
| 2026-05-07 04:05 | 10.59783 | -67.14917 | 2854 ft | 191 kts | 88° |
| 2026-05-07 04:05 | 10.59815 | -67.13612 | 2603 ft | 178 kts | 88° |
| 2026-05-07 04:05 | 10.59854 | -67.12374 | 2373 ft | 179 kts | 88° |
| 2026-05-07 04:05 | 10.59896 | -67.11126 | 2145 ft | 171 kts | 87° |
| 2026-05-07 04:06 | 10.59927 | -67.09990 | 1928 ft | 152 kts | 88° |
| 2026-05-07 04:06 | 10.59961 | -67.08956 | 1726 ft | 143 kts | 86° |
| 2026-05-07 04:06 | 10.60000 | -67.07887 | 1533 ft | 152 kts | 87° |
| 2026-05-07 04:06 | 10.60034 | -67.06817 | 1329 ft | 150 kts | 88° |
| 2026-05-07 04:07 | 10.60065 | -67.05769 | 1136 ft | 150 kts | 88° |
| 2026-05-07 04:07 | 10.60099 | -67.04712 | 933 ft | 149 kts | 88° |
| 2026-05-07 04:07 | 10.60133 | -67.03663 | 735 ft | 149 kts | 88° |
| 2026-05-07 04:07 | 10.60166 | -67.02609 | 538 ft | 149 kts | 88° |
| 2026-05-07 04:08 | 10.60202 | -67.01556 | 337 ft | 149 kts | 87° |
| 2026-05-07 04:08 | 10.60236 | -67.00510 | 224 ft | 144 kts | 88° |
| 2026-05-07 04:08 | 10.60261 | -66.99762 | 211 ft | 63 kts | 88° |
| 2026-05-07 04:08 | 10.60268 | -66.99519 | 204 ft | 29 kts | 89° |
| 2026-05-07 04:09 | 10.60274 | -66.99288 | 194 ft | 36 kts | 88° |
| 2026-05-07 04:09 | 10.60254 | -66.99117 | 188 ft | 14 kts | 158° |
| 2026-05-07 04:09 | 10.60167 | -66.99103 | 188 ft | 12 kts | 169° |
| 2026-05-07 04:09 | 10.60090 | -66.99086 | 189 ft | 10 kts | 172° |
| 2026-05-07 04:10 | 10.60038 | -66.99113 | 191 ft | 6 kts | 229° |
| 2026-05-07 04:10 | 10.60027 | -66.99132 | 192 ft | 2 kts | 249° |
| 2026-05-07 04:10 | 10.60020 | -66.99158 | 204 ft | 6 kts | 256° |
| 2026-05-07 04:10 | 10.60007 | -66.99211 | 196 ft | 9 kts | 256° |
| 2026-05-07 04:11 | 10.59993 | -66.99267 | 198 ft | 8 kts | 255° |
| 2026-05-07 04:11 | 10.59979 | -66.99323 | 200 ft | 8 kts | 256° |
| 2026-05-07 04:11 | 10.59966 | -66.99378 | 202 ft | 8 kts | 256° |
| 2026-05-07 04:11 | 10.59953 | -66.99428 | 204 ft | 7 kts | 255° |
| 2026-05-07 04:12 | 10.59943 | -66.99468 | 206 ft | 5 kts | 256° |
| 2026-05-07 04:12 | 10.59936 | -66.99497 | 208 ft | 4 kts | 256° |
| 2026-05-07 04:12 | 10.59928 | -66.99531 | 215 ft | 6 kts | 256° |
| 2026-05-07 04:12 | 10.59918 | -66.99574 | 218 ft | 7 kts | 258° |
| 2026-05-07 04:13 | 10.59915 | -66.99628 | 217 ft | 8 kts | 284° |
| 2026-05-07 04:13 | 10.59969 | -66.99658 | 222 ft | 12 kts | 354° |
| 2026-05-07 04:13 | 10.60079 | -66.99665 | 219 ft | 18 kts | 356° |
| 2026-05-07 04:13 | 10.60137 | -66.99737 | 216 ft | 14 kts | 269° |
| 2026-05-07 04:14 | 10.60136 | -66.99825 | 218 ft | 11 kts | 269° |
| 2026-05-07 04:14 | 10.60131 | -66.99895 | 219 ft | 9 kts | 262° |
| 2026-05-07 04:14 | 10.60123 | -66.99953 | 219 ft | 8 kts | 263° |
| 2026-05-07 04:14 | 10.60121 | -67.00009 | 219 ft | 8 kts | 269° |
| 2026-05-07 04:15 | 10.60119 | -67.00065 | 220 ft | 8 kts | 268° |
| 2026-05-07 04:15 | 10.60118 | -67.00121 | 221 ft | 8 kts | 269° |
| 2026-05-07 04:15 | 10.60116 | -67.00177 | 222 ft | 8 kts | 268° |
| 2026-05-07 04:15 | 10.60113 | -67.00221 | 222 ft | 4 kts | 260° |
| 2026-05-07 04:16 | 10.60110 | -67.00248 | 223 ft | 4 kts | 265° |
| 2026-05-07 04:16 | 10.60102 | -67.00273 | 225 ft | 4 kts | 242° |
| 2026-05-07 04:16 | 10.60082 | -67.00289 | 224 ft | 4 kts | 203° |
| 2026-05-07 04:16 | 10.60048 | -67.00293 | 224 ft | 6 kts | 185° |
| 2026-05-07 04:17 | 10.60005 | -67.00295 | 227 ft | 7 kts | 176° |
| 2026-05-07 04:17 | 10.59951 | -67.00297 | 226 ft | 8 kts | 200° |
| 2026-05-07 04:17 | 10.59926 | -67.00341 | 225 ft | 7 kts | 263° |
| 2026-05-07 04:17 | 10.59922 | -67.00389 | 226 ft | 7 kts | 266° |
| 2026-05-07 04:18 | 10.59920 | -67.00434 | 227 ft | 6 kts | 268° |
| 2026-05-07 04:18 | 10.59919 | -67.00475 | 228 ft | 6 kts | 268° |
| 2026-05-07 04:18 | 10.59917 | -67.00514 | 228 ft | 5 kts | 269° |
| 2026-05-07 04:18 | 10.59917 | -67.00549 | 229 ft | 5 kts | 268° |
| 2026-05-07 04:19 | 10.59905 | -67.00574 | 231 ft | 4 kts | 214° |
| 2026-05-07 04:19 | 10.59885 | -67.00578 | 230 ft | 2 kts | 189° |
| 2026-05-07 04:19 | 10.59866 | -67.00580 | 230 ft | 3 kts | 184° |
| 2026-05-07 04:19 | 10.59842 | -67.00580 | 230 ft | 1 kts | 178° |
| 2026-05-07 04:20 | 10.59837 | -67.00580 | 230 ft | 0 kts | 179° |